Time;durP1;ratioP1;P1;durP2;ratioP2;P2;SDS_P1;SDS_P2;PMS_P1;PMS_P2;Temp;Humidity;BMP_temperature;BMP_pressure;BME280_temperature;BME280_humidity;BME280_pressure;Samples;Min_cycle;Max_cycle;Signal;HPM_P1;HPM_P2
2022/06/26 00:02:31;;;;;;;13.67;12.37;;;;;;;;;;5233719;28;20047;-77
2022/06/26 00:05:03;;;;;;;14.50;12.93;;;;;;;;;;5229567;28;20026;-78
2022/06/26 00:07:34;;;;;;;14.37;13.07;;;;;;;;;;5227218;28;20032;-77
2022/06/26 00:10:06;;;;;;;15.67;14.23;;;;;;;;;;5229109;28;20104;-78
2022/06/26 00:12:37;;;;;;;13.23;11.80;;;;;;;;;;5230483;28;20108;-79
2022/06/26 00:15:09;;;;;;;14.87;13.40;;;;;;;;;;5229378;28;20120;-81
2022/06/26 00:17:40;;;;;;;18.10;13.73;;;;;;;;;;5231026;28;20084;-80
2022/06/26 00:20:11;;;;;;;13.87;12.47;;;;;;;;;;5230067;28;20021;-79
2022/06/26 00:22:42;;;;;;;15.33;13.50;;;;;;;;;;5231117;28;20021;-76
2022/06/26 00:25:14;;;;;;;15.13;13.37;;;;;;;;;;5229206;28;20064;-77
2022/06/26 00:27:46;;;;;;;13.03;11.93;;;;;;;;;;5229620;28;20021;-77
2022/06/26 00:30:17;;;;;;;11.73;10.63;;;;;;;;;;5228999;28;20021;-77
2022/06/26 00:32:48;;;;;;;13.53;12.17;;;;;;;;;;5229377;28;20020;-77
2022/06/26 00:35:20;;;;;;;11.43;10.30;;;;;;;;;;5229973;28;20025;-78
2022/06/26 00:37:51;;;;;;;12.40;11.20;;;;;;;;;;5231938;28;20456;-77
2022/06/26 00:40:22;;;;;;;11.03;10.13;;;;;;;;;;5230199;28;20385;-77
2022/06/26 00:42:53;;;;;;;11.93;10.70;;;;;;;;;;5230656;28;20024;-77
2022/06/26 00:45:25;;;;;;;13.07;11.67;;;;;;;;;;5229155;28;20021;-77
2022/06/26 00:47:56;;;;;;;12.90;11.60;;;;;;;;;;5231594;28;20472;-77
2022/06/26 00:50:27;;;;;;;14.10;12.57;;;;;;;;;;5231614;28;20025;-77
2022/06/26 00:52:58;;;;;;;13.40;12.00;;;;;;;;;;5231186;28;20017;-76
2022/06/26 00:55:30;;;;;;;12.40;11.20;;;;;;;;;;5231838;28;20045;-77
2022/06/26 00:58:01;;;;;;;12.67;11.37;;;;;;;;;;5231133;28;20380;-77
2022/06/26 01:00:33;;;;;;;14.47;12.23;;;;;;;;;;5230703;28;20029;-77
2022/06/26 01:03:04;;;;;;;13.03;11.83;;;;;;;;;;5231122;28;20902;-78
2022/06/26 01:05:35;;;;;;;14.27;12.97;;;;;;;;;;5233622;28;20136;-77
2022/06/26 01:08:07;;;;;;;15.03;13.53;;;;;;;;;;5229562;28;20490;-77
2022/06/26 01:10:38;;;;;;;15.43;13.90;;;;;;;;;;5240683;22;20636;-76
2022/06/26 01:13:09;;;;;;;15.73;14.23;;;;;;;;;;5225484;28;20469;-77
2022/06/26 01:15:41;;;;;;;17.13;15.53;;;;;;;;;;5227516;28;20041;-77
2022/06/26 01:18:13;;;;;;;15.70;14.20;;;;;;;;;;5231416;28;20136;-78
2022/06/26 01:20:44;;;;;;;15.97;14.47;;;;;;;;;;5228882;28;20665;-77
2022/06/26 01:23:15;;;;;;;17.03;15.43;;;;;;;;;;5230911;28;20356;-77
2022/06/26 01:25:47;;;;;;;17.07;15.47;;;;;;;;;;5230000;28;20034;-77
2022/06/26 01:28:19;;;;;;;15.87;14.27;;;;;;;;;;5230332;28;20017;-76
2022/06/26 01:30:50;;;;;;;16.07;14.47;;;;;;;;;;5230727;28;20469;-77
2022/06/26 01:33:21;;;;;;;16.27;14.77;;;;;;;;;;5230443;28;20022;-78
2022/06/26 01:35:53;;;;;;;16.03;14.40;;;;;;;;;;5229393;28;20030;-78
2022/06/26 01:38:24;;;;;;;15.33;13.93;;;;;;;;;;5231045;28;20017;-79
2022/06/26 01:40:56;;;;;;;16.87;15.20;;;;;;;;;;5229872;28;20064;-78
2022/06/26 01:43:29;;;;;;;15.53;13.80;;;;;;;;;;5230450;28;20002;-78
2022/06/26 01:46:01;;;;;;;17.25;15.70;;;;;;;;;;5229645;28;20033;-78
2022/06/26 01:48:33;;;;;;;17.20;15.50;;;;;;;;;;5230578;28;20013;-78
2022/06/26 01:51:04;;;;;;;18.73;17.13;;;;;;;;;;5229860;28;20082;-79
2022/06/26 01:53:36;;;;;;;18.87;17.03;;;;;;;;;;5230465;28;20529;-78
2022/06/26 01:56:07;;;;;;;18.27;16.43;;;;;;;;;;5230651;28;20132;-78
2022/06/26 01:58:39;;;;;;;18.77;17.00;;;;;;;;;;5230271;28;20040;-77
2022/06/26 02:01:10;;;;;;;17.77;15.97;;;;;;;;;;5229322;28;20104;-78
2022/06/26 02:03:41;;;;;;;18.80;17.00;;;;;;;;;;5230332;28;20013;-78
2022/06/26 02:06:12;;;;;;;18.53;16.83;;;;;;;;;;5230444;28;20395;-78
2022/06/26 02:08:44;;;;;;;18.47;16.57;;;;;;;;;;5230996;28;20102;-78
2022/06/26 02:14:05;;;;;;;18.17;16.37;;;;;;;;;;5230292;28;20029;-78
2022/06/26 02:16:36;;;;;;;18.33;16.50;;;;;;;;;;5228896;28;20025;-78
2022/06/26 02:19:07;;;;;;;18.27;16.57;;;;;;;;;;5229800;28;20101;-78
2022/06/26 02:21:39;;;;;;;20.07;16.57;;;;;;;;;;5228424;28;20108;-78
2022/06/26 02:24:10;;;;;;;19.63;16.57;;;;;;;;;;5230029;28;20056;-77
2022/06/26 02:26:41;;;;;;;17.87;16.07;;;;;;;;;;5229899;28;20032;-78
2022/06/26 02:29:13;;;;;;;19.27;15.43;;;;;;;;;;5229204;28;20025;-78
2022/06/26 02:31:44;;;;;;;17.97;16.37;;;;;;;;;;5228701;28;20488;-77
2022/06/26 02:34:15;;;;;;;17.10;15.37;;;;;;;;;;5228918;28;20080;-78
2022/06/26 02:36:46;;;;;;;17.07;15.13;;;;;;;;;;5230274;28;20059;-77
2022/06/26 02:39:18;;;;;;;17.73;15.27;;;;;;;;;;5228811;28;20025;-78
2022/06/26 02:41:49;;;;;;;16.60;14.30;;;;;;;;;;5230272;28;20021;-77
2022/06/26 02:44:21;;;;;;;17.70;14.60;;;;;;;;;;5229696;28;20476;-78
2022/06/26 02:46:52;;;;;;;17.10;13.43;;;;;;;;;;5228270;28;20466;-77
2022/06/26 02:49:24;;;;;;;16.00;13.43;;;;;;;;;;5229696;28;20033;-76
2022/06/26 02:51:55;;;;;;;16.73;13.77;;;;;;;;;;5228778;28;20034;-76
2022/06/26 02:54:26;;;;;;;16.93;14.07;;;;;;;;;;5229967;28;20028;-77
2022/06/26 02:56:57;;;;;;;17.87;15.10;;;;;;;;;;5229344;28;20033;-77
2022/06/26 02:59:28;;;;;;;16.07;13.93;;;;;;;;;;5229167;28;20659;-77
2022/06/26 03:02:00;;;;;;;15.33;13.63;;;;;;;;;;5228949;28;20032;-77
2022/06/26 03:04:31;;;;;;;17.70;13.13;;;;;;;;;;5228917;28;20080;-76
2022/06/26 03:07:02;;;;;;;15.47;13.30;;;;;;;;;;5229380;28;20467;-77
2022/06/26 03:09:34;;;;;;;13.53;12.23;;;;;;;;;;5230008;28;20237;-77
2022/06/26 03:12:05;;;;;;;17.77;12.30;;;;;;;;;;5229393;28;20089;-77
2022/06/26 03:14:36;;;;;;;15.67;12.37;;;;;;;;;;5228721;28;20034;-76
2022/06/26 03:17:07;;;;;;;14.43;12.23;;;;;;;;;;5227611;28;20495;-77
2022/06/26 03:19:39;;;;;;;15.07;12.13;;;;;;;;;;5229573;28;20013;-77
2022/06/26 03:22:10;;;;;;;13.40;11.33;;;;;;;;;;5228826;28;20022;-78
2022/06/26 03:24:41;;;;;;;14.87;11.93;;;;;;;;;;5229111;28;20114;-77
2022/06/26 03:27:12;;;;;;;13.07;11.30;;;;;;;;;;5227327;28;20233;-77
2022/06/26 03:29:43;;;;;;;13.50;11.50;;;;;;;;;;5227196;28;20025;-77
2022/06/26 03:32:15;;;;;;;12.10;10.40;;;;;;;;;;5229196;28;20483;-77
2022/06/26 03:34:46;;;;;;;13.77;10.20;;;;;;;;;;5227978;28;20487;-78
2022/06/26 03:37:17;;;;;;;17.07;11.13;;;;;;;;;;5228997;28;20028;-78
2022/06/26 03:39:48;;;;;;;14.63;11.37;;;;;;;;;;5229454;28;20025;-78
2022/06/26 03:42:20;;;;;;;15.30;10.07;;;;;;;;;;5229320;28;20108;-78
2022/06/26 03:44:51;;;;;;;13.27;10.27;;;;;;;;;;5232189;28;20425;-77
2022/06/26 03:47:22;;;;;;;15.30;10.87;;;;;;;;;;5232561;28;20022;-77
2022/06/26 03:49:54;;;;;;;13.83;10.50;;;;;;;;;;5233106;28;20025;-77
2022/06/26 03:52:25;;;;;;;13.03;10.13;;;;;;;;;;5232612;28;20444;-77
2022/06/26 03:54:56;;;;;;;10.33;9.10;;;;;;;;;;5232365;28;20029;-77
2022/06/26 03:57:27;;;;;;;13.67;9.60;;;;;;;;;;5233688;28;20079;-78
2022/06/26 03:59:58;;;;;;;11.37;8.57;;;;;;;;;;5231606;28;20029;-78
2022/06/26 04:02:30;;;;;;;15.33;10.30;;;;;;;;;;5232295;28;20032;-77
2022/06/26 04:05:01;;;;;;;11.07;8.67;;;;;;;;;;5232563;28;20021;-78
2022/06/26 04:07:32;;;;;;;14.43;9.77;;;;;;;;;;5232982;28;20068;-78
2022/06/26 04:10:04;;;;;;;14.80;10.00;;;;;;;;;;5232523;28;20026;-78
2022/06/26 04:12:35;;;;;;;10.00;8.20;;;;;;;;;;5232009;28;20041;-79
2022/06/26 04:15:06;;;;;;;11.30;8.80;;;;;;;;;;5231278;28;20112;-78
2022/06/26 04:17:38;;;;;;;11.10;8.20;;;;;;;;;;5232171;28;20029;-78
2022/06/26 04:20:09;;;;;;;10.60;8.20;;;;;;;;;;5232737;28;20025;-78
2022/06/26 04:22:40;;;;;;;13.73;8.20;;;;;;;;;;5247735;28;20028;-77
2022/06/26 04:25:12;;;;;;;12.13;8.13;;;;;;;;;;5231512;28;20035;-77
2022/06/26 04:27:43;;;;;;;14.60;8.50;;;;;;;;;;5247632;28;20464;-78
2022/06/26 04:30:14;;;;;;;12.83;8.80;;;;;;;;;;5230403;28;20026;-78
2022/06/26 04:32:46;;;;;;;12.10;8.63;;;;;;;;;;5230977;28;20030;-78
2022/06/26 04:35:17;;;;;;;10.60;8.93;;;;;;;;;;5232122;28;20033;-78
2022/06/26 04:37:49;;;;;;;13.70;9.43;;;;;;;;;;5231535;28;20032;-77
2022/06/26 04:40:20;;;;;;;13.47;8.60;;;;;;;;;;5231843;28;20033;-77
2022/06/26 04:42:51;;;;;;;12.10;8.83;;;;;;;;;;5231717;28;20022;-78
2022/06/26 04:45:22;;;;;;;15.50;9.47;;;;;;;;;;5230581;28;20029;-77
2022/06/26 04:47:53;;;;;;;14.07;9.33;;;;;;;;;;5230442;28;20026;-77
2022/06/26 04:50:25;;;;;;;14.07;8.50;;;;;;;;;;5230986;28;20033;-77
2022/06/26 04:52:56;;;;;;;10.63;7.77;;;;;;;;;;5231248;28;20464;-77
2022/06/26 04:55:27;;;;;;;19.23;9.17;;;;;;;;;;5246118;28;20033;-77
2022/06/26 04:57:58;;;;;;;14.70;9.17;;;;;;;;;;5231402;28;20041;-78
2022/06/26 05:00:29;;;;;;;15.03;8.93;;;;;;;;;;5230777;28;20029;-78
2022/06/26 05:03:01;;;;;;;15.10;9.50;;;;;;;;;;5230476;28;20096;-77
2022/06/26 05:05:32;;;;;;;13.77;8.90;;;;;;;;;;5231902;28;20025;-78
2022/06/26 05:08:03;;;;;;;14.30;9.17;;;;;;;;;;5230826;28;20781;-78
2022/06/26 05:10:34;;;;;;;15.33;9.80;;;;;;;;;;5231435;28;20048;-77
2022/06/26 05:13:05;;;;;;;14.20;9.03;;;;;;;;;;5230694;28;20041;-78
2022/06/26 05:15:38;;;;;;;17.43;10.20;;;;;;;;;;5230697;28;20120;-77
2022/06/26 05:18:09;;;;;;;14.63;8.87;;;;;;;;;;5231377;28;20352;-77
2022/06/26 05:20:40;;;;;;;16.30;10.03;;;;;;;;;;5230836;28;20071;-76
2022/06/26 05:23:12;;;;;;;14.23;10.00;;;;;;;;;;5230760;28;20029;-77
2022/06/26 05:25:43;;;;;;;16.93;9.87;;;;;;;;;;5230710;28;20017;-77
2022/06/26 05:28:14;;;;;;;15.97;9.57;;;;;;;;;;5230951;28;20032;-78
2022/06/26 05:30:46;;;;;;;14.47;9.03;;;;;;;;;;5229932;28;20083;-77
2022/06/26 05:33:17;;;;;;;15.77;8.90;;;;;;;;;;5230482;28;20025;-78
2022/06/26 05:35:48;;;;;;;22.50;10.03;;;;;;;;;;5231131;28;20041;-77
2022/06/26 05:38:19;;;;;;;12.70;9.70;;;;;;;;;;5229359;28;20040;-77
2022/06/26 05:40:50;;;;;;;13.90;9.37;;;;;;;;;;5230741;28;20503;-78
2022/06/26 05:43:21;;;;;;;15.83;10.00;;;;;;;;;;5230477;28;20114;-78
2022/06/26 05:45:53;;;;;;;16.80;9.20;;;;;;;;;;5230411;28;20026;-78
2022/06/26 05:48:24;;;;;;;15.57;9.57;;;;;;;;;;5230565;28;20032;-76
2022/06/26 05:50:55;;;;;;;17.67;9.70;;;;;;;;;;5228559;28;20670;-77
2022/06/26 05:53:27;;;;;;;14.93;9.10;;;;;;;;;;5231876;28;20017;-77
2022/06/26 05:55:58;;;;;;;15.57;9.80;;;;;;;;;;5245903;28;20059;-76
2022/06/26 05:58:29;;;;;;;12.63;8.23;;;;;;;;;;5230168;28;20476;-77
2022/06/26 06:01:00;;;;;;;13.10;9.00;;;;;;;;;;5229557;28;20025;-77
2022/06/26 06:03:31;;;;;;;15.40;8.47;;;;;;;;;;5230184;28;20067;-77
2022/06/26 06:06:03;;;;;;;15.87;8.90;;;;;;;;;;5229928;28;20061;-76
2022/06/26 06:08:34;;;;;;;15.77;9.10;;;;;;;;;;5245965;28;20021;-77
2022/06/26 06:11:05;;;;;;;13.97;8.17;;;;;;;;;;5229991;28;20131;-77
2022/06/26 06:13:36;;;;;;;14.80;7.77;;;;;;;;;;5230498;28;20109;-77
2022/06/26 06:16:07;;;;;;;13.47;8.17;;;;;;;;;;5228499;28;20492;-77
2022/06/26 06:18:39;;;;;;;13.03;7.37;;;;;;;;;;5230709;28;20017;-77
2022/06/26 06:21:10;;;;;;;12.87;7.43;;;;;;;;;;5229737;28;20025;-78
2022/06/26 06:23:44;;;;;;;11.10;6.60;;;;;;;;;;5230328;28;20053;-78
2022/06/26 06:26:15;;;;;;;13.35;6.80;;;;;;;;;;5229819;28;20032;-76
2022/06/26 06:28:46;;;;;;;11.67;6.43;;;;;;;;;;5244818;28;20017;-77
2022/06/26 06:31:18;;;;;;;13.47;7.37;;;;;;;;;;5228749;28;20032;-78
2022/06/26 06:33:49;;;;;;;14.10;6.83;;;;;;;;;;5229290;28;20014;-78
2022/06/26 06:36:20;;;;;;;11.63;6.63;;;;;;;;;;5228195;28;20021;-77
2022/06/26 06:38:51;;;;;;;10.43;6.97;;;;;;;;;;5230464;28;20044;-79
2022/06/26 06:41:22;;;;;;;8.93;6.20;;;;;;;;;;5228358;28;20210;-79
2022/06/26 06:43:53;;;;;;;12.33;6.43;;;;;;;;;;5229708;28;20075;-78
2022/06/26 06:46:25;;;;;;;9.80;7.00;;;;;;;;;;5228718;28;20029;-79
2022/06/26 06:48:56;;;;;;;10.77;6.23;;;;;;;;;;5229690;28;20029;-78
2022/06/26 06:51:27;;;;;;;17.20;6.33;;;;;;;;;;5229559;28;20369;-78
2022/06/26 06:53:58;;;;;;;7.70;6.07;;;;;;;;;;5228386;28;20059;-78
2022/06/26 06:56:29;;;;;;;7.87;5.37;;;;;;;;;;5228240;28;20029;-78
2022/06/26 06:59:01;;;;;;;16.97;7.43;;;;;;;;;;5228414;28;20500;-78
2022/06/26 07:01:33;;;;;;;10.00;5.57;;;;;;;;;;5229562;28;20025;-78
2022/06/26 07:04:04;;;;;;;9.40;5.70;;;;;;;;;;5231979;28;20060;-78
2022/06/26 07:06:35;;;;;;;8.07;4.97;;;;;;;;;;5246930;28;20021;-77
2022/06/26 07:09:06;;;;;;;9.07;5.50;;;;;;;;;;5229163;28;20029;-77
2022/06/26 07:11:38;;;;;;;9.10;5.60;;;;;;;;;;5244044;28;20041;-77
2022/06/26 07:14:09;;;;;;;9.23;5.73;;;;;;;;;;5229014;28;20030;-77
2022/06/26 07:16:40;;;;;;;9.97;5.53;;;;;;;;;;5229583;28;20037;-78
2022/06/26 07:19:11;;;;;;;12.97;5.73;;;;;;;;;;5233377;28;20083;-78
2022/06/26 07:21:43;;;;;;;8.90;5.37;;;;;;;;;;5233751;28;20026;-77
2022/06/26 07:24:15;;;;;;;9.53;5.40;;;;;;;;;;5231687;28;20032;-78
2022/06/26 07:26:46;;;;;;;6.80;4.33;;;;;;;;;;5233660;28;20407;-77
2022/06/26 07:29:17;;;;;;;11.83;5.40;;;;;;;;;;5231637;28;20028;-79
2022/06/26 07:31:49;;;;;;;12.60;5.07;;;;;;;;;;5232185;28;20021;-77
2022/06/26 07:34:21;;;;;;;8.70;5.00;;;;;;;;;;5233616;28;20025;-77
2022/06/26 07:36:52;;;;;;;6.87;4.70;;;;;;;;;;5246417;28;20372;-77
2022/06/26 07:39:23;;;;;;;9.53;4.50;;;;;;;;;;5232005;28;20024;-78
2022/06/26 07:41:54;;;;;;;9.73;4.60;;;;;;;;;;5232253;28;20064;-76
2022/06/26 07:44:26;;;;;;;8.23;4.50;;;;;;;;;;5232496;28;20017;-82
2022/06/26 07:46:57;;;;;;;9.20;3.73;;;;;;;;;;5233068;28;20104;-83
2022/06/26 07:49:28;;;;;;;7.37;4.30;;;;;;;;;;5232865;28;20017;-78
2022/06/26 07:51:59;;;;;;;6.33;4.10;;;;;;;;;;5232711;28;20035;-79
2022/06/26 07:54:30;;;;;;;6.64;4.28;;;;;;;;;;5232527;28;20044;-78
2022/06/26 07:57:02;;;;;;;9.50;3.83;;;;;;;;;;5248013;28;20116;-78
2022/06/26 07:59:33;;;;;;;6.53;3.70;;;;;;;;;;5231438;28;20024;-77
2022/06/26 08:02:05;;;;;;;8.63;3.67;;;;;;;;;;5230728;28;20018;-79
2022/06/26 08:04:36;;;;;;;8.17;3.93;;;;;;;;;;5232521;28;20021;-79
2022/06/26 08:07:07;;;;;;;8.33;4.00;;;;;;;;;;5245222;28;20025;-79
2022/06/26 08:09:38;;;;;;;5.83;3.33;;;;;;;;;;5231264;28;20037;-80
2022/06/26 08:12:09;;;;;;;7.93;3.93;;;;;;;;;;5230040;28;20042;-79
2022/06/26 08:14:40;;;;;;;4.87;3.57;;;;;;;;;;5229323;28;20028;-80
2022/06/26 08:17:12;;;;;;;6.17;3.50;;;;;;;;;;5231507;28;20492;-78
2022/06/26 08:19:43;;;;;;;8.17;4.17;;;;;;;;;;5232295;28;20802;-81
2022/06/26 08:22:14;;;;;;;9.43;3.87;;;;;;;;;;5234918;28;20648;-82
2022/06/26 08:24:45;;;;;;;5.37;3.17;;;;;;;;;;5232551;28;20026;-81
2022/06/26 08:27:17;;;;;;;5.03;3.70;;;;;;;;;;5246752;28;20021;-83
2022/06/26 08:29:48;;;;;;;5.83;3.57;;;;;;;;;;5228696;28;20021;-84
2022/06/26 08:32:19;;;;;;;6.43;3.50;;;;;;;;;;5245532;28;20018;-83
2022/06/26 08:34:50;;;;;;;8.37;3.67;;;;;;;;;;5231739;28;20472;-82
2022/06/26 08:37:21;;;;;;;7.00;4.30;;;;;;;;;;5231071;28;20025;-70
2022/06/26 08:39:53;;;;;;;9.30;4.30;;;;;;;;;;5232094;28;20026;-70
2022/06/26 08:42:25;;;;;;;8.67;3.70;;;;;;;;;;5231778;28;20495;-73
2022/06/26 08:44:58;;;;;;;10.97;4.00;;;;;;;;;;5230096;28;20031;-72
2022/06/26 08:47:31;;;;;;;13.57;3.80;;;;;;;;;;5230164;28;20028;-70
2022/06/26 08:50:03;;;;;;;5.57;3.58;;;;;;;;;;5216313;28;20701;-70
2022/06/26 08:52:34;;;;;;;6.17;3.93;;;;;;;;;;5231713;28;20055;-69
2022/06/26 08:55:05;;;;;;;8.10;3.43;;;;;;;;;;5219191;28;20117;-68
2022/06/26 08:57:37;;;;;;;7.17;3.37;;;;;;;;;;5214880;28;20021;-70
2022/06/26 09:00:08;;;;;;;8.43;3.47;;;;;;;;;;5199033;28;20026;-71
2022/06/26 09:02:40;;;;;;;4.23;2.77;;;;;;;;;;5215684;28;20026;-69
2022/06/26 09:05:11;;;;;;;5.83;2.93;;;;;;;;;;5199791;28;20608;-72
2022/06/26 09:07:51;;;;;;;8.67;3.60;;;;;;;;;;5210523;28;20067;-71
2022/06/26 09:10:22;;;;;;;4.13;2.60;;;;;;;;;;5219857;28;20067;-72
2022/06/26 09:12:55;;;;;;;4.70;2.40;;;;;;;;;;5219902;28;20049;-68
2022/06/26 09:15:26;;;;;;;4.60;2.57;;;;;;;;;;5218356;28;20022;-69
2022/06/26 09:17:57;;;;;;;5.10;2.60;;;;;;;;;;5217748;28;20024;-72
2022/06/26 09:20:29;;;;;;;4.87;2.70;;;;;;;;;;5203485;28;20022;-78
2022/06/26 09:23:01;;;;;;;10.80;2.63;;;;;;;;;;5235476;28;20021;-75
2022/06/26 09:25:36;;;;;;;7.07;2.77;;;;;;;;;;5215878;28;20544;-75
2022/06/26 09:28:18;;;;;;;4.33;2.40;;;;;;;;;;5210383;28;20029;-79
2022/06/26 09:31:00;;;;;;;8.97;2.70;;;;;;;;;;5215403;28;20025;-80
2022/06/26 09:33:32;;;;;;;6.63;2.63;;;;;;;;;;5214410;28;20036;-82
2022/06/26 09:36:04;;;;;;;8.10;2.60;;;;;;;;;;5207800;28;20030;-83
2022/06/26 09:38:36;;;;;;;4.97;2.40;;;;;;;;;;5216683;28;20022;-81
2022/06/26 09:41:08;;;;;;;6.00;2.43;;;;;;;;;;5205480;28;20022;-78
2022/06/26 09:43:43;;;;;;;8.63;3.07;;;;;;;;;;5208959;28;20020;-80
2022/06/26 09:46:16;;;;;;;7.03;2.80;;;;;;;;;;5211394;28;20025;-79
2022/06/26 09:48:47;;;;;;;7.07;2.90;;;;;;;;;;5214703;28;20025;-78
2022/06/26 09:51:18;;;;;;;7.10;3.33;;;;;;;;;;5214460;28;20022;-81
2022/06/26 09:53:50;;;;;;;7.93;3.00;;;;;;;;;;5207729;28;20025;-79
2022/06/26 09:56:21;;;;;;;4.70;2.80;;;;;;;;;;5205155;28;20088;-77
2022/06/26 09:58:54;;;;;;;8.03;3.17;;;;;;;;;;5208056;28;20025;-78
2022/06/26 10:07:06;;;;;;;4.70;2.27;;;;;;;;;;5210054;28;20021;-76
2022/06/26 10:09:39;;;;;;;6.00;2.10;;;;;;;;;;5198667;28;20030;-77
2022/06/26 10:12:12;;;;;;;8.32;2.53;;;;;;;;;;5218531;28;20060;-78
2022/06/26 10:14:44;;;;;;;4.70;2.23;;;;;;;;;;5206295;28;20025;-80
2022/06/26 10:17:21;;;;;;;4.33;2.43;;;;;;;;;;5222267;28;20104;-81
2022/06/26 10:19:55;;;;;;;8.83;3.00;;;;;;;;;;5199951;28;20575;-77
2022/06/26 10:22:36;;;;;;;5.10;2.50;;;;;;;;;;5204936;28;20452;-77
2022/06/26 10:25:09;;;;;;;6.67;2.50;;;;;;;;;;5218698;28;20028;-77
2022/06/26 10:27:40;;;;;;;6.17;2.53;;;;;;;;;;5218700;28;20025;-76
2022/06/26 10:30:13;;;;;;;6.40;3.03;;;;;;;;;;5217866;28;20577;-77
2022/06/26 10:32:45;;;;;;;8.77;2.93;;;;;;;;;;5217806;28;20458;-76
2022/06/26 10:35:16;;;;;;;7.88;4.05;;;;;;;;;;5212931;28;20065;-78
2022/06/26 10:37:48;;;;;;;4.05;2.83;;;;;;;;;;5204852;28;20021;-72
2022/06/26 10:43:13;;;;;;;8.70;3.43;;;;;;;;;;5202699;28;20038;-74
2022/06/26 10:45:44;;;;;;;8.95;3.08;;;;;;;;;;5200188;28;20030;-71
2022/06/26 10:48:20;;;;;;;5.68;2.42;;;;;;;;;;5230739;28;20387;-72
2022/06/26 10:51:01;;;;;;;5.72;2.45;;;;;;;;;;5218190;28;20052;-72
2022/06/26 10:53:36;;;;;;;7.07;2.42;;;;;;;;;;5213843;28;20017;-69
2022/06/26 10:56:07;;;;;;;9.88;2.65;;;;;;;;;;5200631;28;20037;-86
2022/06/26 10:58:41;;;;;;;6.53;2.95;;;;;;;;;;5211589;28;20034;-77
2022/06/26 11:01:13;;;;;;;6.97;3.00;;;;;;;;;;5208399;28;20502;-78
2022/06/26 11:03:45;;;;;;;6.07;2.85;;;;;;;;;;5212814;28;20070;-77
2022/06/26 11:06:16;;;;;;;5.35;2.63;;;;;;;;;;5202290;28;20022;-77
2022/06/26 11:08:51;;;;;;;5.60;2.75;;;;;;;;;;5200311;28;20030;-79
2022/06/26 11:11:27;;;;;;;6.20;2.28;;;;;;;;;;5201987;28;20069;-80
2022/06/26 11:14:00;;;;;;;5.80;2.10;;;;;;;;;;5201908;28;20037;-81
2022/06/26 11:16:44;;;;;;;7.25;2.10;;;;;;;;;;5201053;28;20706;-76
2022/06/26 11:19:24;;;;;;;7.10;2.38;;;;;;;;;;5204782;28;20033;-76
2022/06/26 11:22:05;;;;;;;7.60;2.60;;;;;;;;;;5196846;28;20030;-81
2022/06/26 11:24:47;;;;;;;5.97;2.15;;;;;;;;;;5215188;28;20025;-71
2022/06/26 11:27:24;;;;;;;5.15;2.53;;;;;;;;;;5205147;28;20384;-69
2022/06/26 11:29:56;;;;;;;7.38;3.50;;;;;;;;;;5211363;28;20065;-70
2022/06/26 11:32:27;;;;;;;6.82;2.20;;;;;;;;;;5199775;28;20104;-70
2022/06/26 11:34:58;;;;;;;7.72;2.50;;;;;;;;;;5214669;28;20120;-71
2022/06/26 11:37:35;;;;;;;7.10;2.55;;;;;;;;;;5216538;28;20063;-71
2022/06/26 11:40:16;;;;;;;7.00;2.63;;;;;;;;;;5210354;28;20460;-69
2022/06/26 11:42:55;;;;;;;6.85;2.90;;;;;;;;;;5206911;28;20083;-70
2022/06/26 11:45:31;;;;;;;7.18;2.20;;;;;;;;;;5202042;28;20013;-70
2022/06/26 11:48:05;;;;;;;12.40;2.25;;;;;;;;;;5217464;28;20075;-70
2022/06/26 11:50:36;;;;;;;;;;;;;;;;;;5198192;28;20026;-69
2022/06/26 11:53:08;;;;;;;6.13;2.38;;;;;;;;;;5197244;28;19939;-69
2022/06/26 11:55:46;;;;;;;6.15;2.00;;;;;;;;;;5197452;28;21607;-67
2022/06/26 11:58:17;;;;;;;5.93;2.00;;;;;;;;;;5213332;28;20189;-72
2022/06/26 12:00:49;;;;;;;9.13;2.47;;;;;;;;;;5196944;28;20804;-69
2022/06/26 12:03:20;;;;;;;7.22;1.77;;;;;;;;;;5211829;28;20025;-67
2022/06/26 12:05:53;;;;;;;8.74;2.64;;;;;;;;;;5203097;28;20037;-71
2022/06/26 12:08:24;;;;;;;3.53;1.85;;;;;;;;;;5215095;28;20837;-72
2022/06/26 12:10:55;;;;;;;3.90;1.65;;;;;;;;;;5205788;28;20060;-69
2022/06/26 12:13:30;;;;;;;6.85;2.83;;;;;;;;;;5200903;28;20151;-68
2022/06/26 12:16:03;;;;;;;8.43;2.47;;;;;;;;;;5206575;28;20040;-68
2022/06/26 12:18:35;;;;;;;8.38;2.45;;;;;;;;;;5216373;28;20389;-68
2022/06/26 12:21:20;;;;;;;5.70;3.08;;;;;;;;;;5220356;28;20029;-71
2022/06/26 12:23:52;;;;;;;6.38;2.30;;;;;;;;;;5214624;28;20029;-70
2022/06/26 12:26:28;;;;;;;5.88;2.13;;;;;;;;;;5209374;28;20050;-69
2022/06/26 12:29:07;;;;;;;7.57;2.65;;;;;;;;;;5200435;28;20026;-72
2022/06/26 12:31:38;;;;;;;6.07;2.28;;;;;;;;;;5221501;28;20051;-75
2022/06/26 12:34:10;;;;;;;5.10;2.03;;;;;;;;;;5202256;28;20018;-70
2022/06/26 12:36:41;;;;;;;7.13;2.20;;;;;;;;;;5201859;28;20038;-69
2022/06/26 12:39:14;;;;;;;4.55;2.20;;;;;;;;;;5205820;28;20461;-70
2022/06/26 12:41:45;;;;;;;6.10;2.35;;;;;;;;;;5211020;28;20884;-70
2022/06/26 12:44:17;;;;;;;5.38;2.20;;;;;;;;;;5199695;28;20029;-70
2022/06/26 12:46:48;;;;;;;6.25;2.35;;;;;;;;;;5204530;28;20037;-70
2022/06/26 12:49:19;;;;;;;7.48;2.90;;;;;;;;;;5224383;28;20022;-76
2022/06/26 12:51:52;;;;;;;6.00;2.50;;;;;;;;;;5200590;28;20030;-69
2022/06/26 12:54:23;;;;;;;9.40;3.30;;;;;;;;;;5199393;28;20030;-70
2022/06/26 12:56:54;;;;;;;6.25;2.70;;;;;;;;;;5199744;28;20044;-70
2022/06/26 12:59:29;;;;;;;7.25;3.00;;;;;;;;;;5200280;28;20033;-69
2022/06/26 13:02:00;;;;;;;6.40;2.53;;;;;;;;;;5201966;28;20026;-68
2022/06/26 13:04:31;;;;;;;4.93;2.20;;;;;;;;;;5214818;28;20398;-70
2022/06/26 13:07:02;;;;;;;5.88;2.30;;;;;;;;;;5219822;28;20025;-70
2022/06/26 13:09:33;;;;;;;6.80;2.28;;;;;;;;;;5214235;28;20107;-69
2022/06/26 13:12:05;;;;;;;7.63;2.45;;;;;;;;;;5217461;28;20080;-69
2022/06/26 13:14:36;;;;;;;6.35;2.38;;;;;;;;;;5216401;28;20038;-73
2022/06/26 13:17:07;;;;;;;5.57;2.50;;;;;;;;;;5219254;28;20064;-71
2022/06/26 13:19:39;;;;;;;9.68;2.60;;;;;;;;;;5218215;28;20079;-73
2022/06/26 13:22:10;;;;;;;5.32;1.95;;;;;;;;;;5216749;28;20776;-70
2022/06/26 13:24:41;;;;;;;5.13;2.45;;;;;;;;;;5203028;28;20013;-70
2022/06/26 13:27:13;;;;;;;7.50;1.90;;;;;;;;;;5212703;28;20491;-69
2022/06/26 13:29:44;;;;;;;3.55;1.85;;;;;;;;;;5216048;28;20059;-71
2022/06/26 13:32:15;;;;;;;5.03;2.65;;;;;;;;;;5208335;28;20038;-70
2022/06/26 13:34:47;;;;;;;7.43;2.45;;;;;;;;;;5206858;28;20511;-71
2022/06/26 13:37:18;;;;;;;8.80;2.22;;;;;;;;;;5214534;28;20423;-71
2022/06/26 13:39:49;;;;;;;5.68;1.98;;;;;;;;;;5212054;28;20057;-75
2022/06/26 13:42:21;;;;;;;6.70;1.92;;;;;;;;;;5217981;28;20765;-72
2022/06/26 13:44:52;;;;;;;7.60;2.88;;;;;;;;;;5218071;28;20075;-69
2022/06/26 13:47:23;;;;;;;6.13;1.67;;;;;;;;;;5211611;28;20033;-70
2022/06/26 13:49:54;;;;;;;7.05;1.98;;;;;;;;;;5197512;28;20025;-75
2022/06/26 13:52:26;;;;;;;5.22;1.88;;;;;;;;;;5199243;28;20034;-71
2022/06/26 13:54:57;;;;;;;4.25;1.92;;;;;;;;;;5199924;28;20061;-70
2022/06/26 13:57:28;;;;;;;5.13;1.95;;;;;;;;;;5197798;28;20657;-68
2022/06/26 13:59:59;;;;;;;7.30;1.88;;;;;;;;;;5229957;28;21002;-70
2022/06/26 14:02:30;;;;;;;5.45;2.10;;;;;;;;;;5207049;28;20029;-69
2022/06/26 14:05:02;;;;;;;6.97;2.40;;;;;;;;;;5211426;28;20040;-72
2022/06/26 14:07:33;;;;;;;7.82;5.15;;;;;;;;;;5200192;28;20065;-68
2022/06/26 14:10:05;;;;;;;6.53;1.98;;;;;;;;;;5217862;28;20052;-71
2022/06/26 14:12:36;;;;;;;7.25;2.35;;;;;;;;;;5218329;28;20112;-71
2022/06/26 14:15:07;;;;;;;4.22;1.70;;;;;;;;;;5217894;28;20449;-72
2022/06/26 14:17:40;;;;;;;5.90;2.00;;;;;;;;;;5199395;28;20048;-72
2022/06/26 14:20:12;;;;;;;6.00;2.17;;;;;;;;;;5196907;28;20026;-73
2022/06/26 14:28:23;;;;;;;7.50;1.88;;;;;;;;;;5199494;28;20483;-71
2022/06/26 14:30:55;;;;;;;4.78;2.00;;;;;;;;;;5211467;28;20017;-68
2022/06/26 14:33:27;;;;;;;3.75;1.90;;;;;;;;;;5204182;28;20037;-70
2022/06/26 14:35:59;;;;;;;4.20;1.85;;;;;;;;;;5216320;28;20045;-71
2022/06/26 14:38:31;;;;;;;4.95;1.98;;;;;;;;;;5202179;28;20126;-68
2022/06/26 14:41:03;;;;;;;6.18;2.05;;;;;;;;;;5224529;28;20013;-73
2022/06/26 14:43:34;;;;;;;5.47;2.08;;;;;;;;;;5219878;28;20512;-69
2022/06/26 14:46:05;;;;;;;5.13;1.90;;;;;;;;;;5204340;28;20095;-70
2022/06/26 14:48:36;;;;;;;5.22;2.05;;;;;;;;;;5202491;28;20144;-71
2022/06/26 14:51:07;;;;;;;5.35;2.38;;;;;;;;;;5205422;28;20068;-73
2022/06/26 14:53:39;;;;;;;3.63;2.05;;;;;;;;;;5217410;28;20028;-71
2022/06/26 14:56:10;;;;;;;6.85;2.08;;;;;;;;;;5213161;28;20088;-71
2022/06/26 14:58:41;;;;;;;5.00;1.45;;;;;;;;;;5201140;28;20438;-70
2022/06/26 15:01:12;;;;;;;5.28;1.65;;;;;;;;;;5201304;28;20033;-70
2022/06/26 15:03:43;;;;;;;4.38;1.85;;;;;;;;;;5213152;28;20034;-69
2022/06/26 15:06:15;;;;;;;6.45;2.20;;;;;;;;;;5219192;28;20918;-71
2022/06/26 15:08:46;;;;;;;4.97;1.70;;;;;;;;;;5221714;28;20126;-72
2022/06/26 15:11:17;;;;;;;7.93;2.42;;;;;;;;;;5214335;28;20071;-71
2022/06/26 15:13:48;;;;;;;6.20;2.13;;;;;;;;;;5202478;28;20108;-70
2022/06/26 15:16:19;;;;;;;7.50;1.80;;;;;;;;;;5198701;28;20156;-68
2022/06/26 15:18:51;;;;;;;6.03;2.15;;;;;;;;;;5214823;28;20052;-72